createdAt,value
2022-10-07T00:00:52.945Z,10.96
2022-10-07T00:03:50.488Z,11.04
2022-10-07T00:06:47.386Z,11.04
2022-10-07T00:09:44.684Z,11.10
2022-10-07T00:12:41.723Z,11.07
2022-10-07T00:15:38.569Z,11.04
2022-10-07T00:18:36.290Z,11.13
2022-10-07T00:21:34.361Z,11.16
2022-10-07T00:24:31.692Z,11.02
2022-10-07T00:27:28.810Z,11.01
2022-10-07T00:30:25.783Z,11.01
2022-10-07T00:33:22.513Z,11.00
2022-10-07T00:36:27.010Z,11.06
2022-10-07T00:39:24.759Z,11.13
2022-10-07T00:42:21.362Z,11.16
2022-10-07T00:45:21.604Z,10.99
2022-10-07T00:48:21.460Z,10.88
2022-10-07T00:51:18.765Z,10.87
2022-10-07T00:54:15.907Z,10.89
2022-10-07T00:57:12.866Z,10.93
2022-10-07T01:00:10.490Z,11.03
2022-10-07T01:03:07.554Z,11.01
2022-10-07T01:06:05.312Z,10.86
2022-10-07T01:09:02.993Z,10.83
2022-10-07T01:12:03.667Z,10.85
2022-10-07T01:15:24.940Z,10.92
2022-10-07T01:18:46.519Z,10.84
2022-10-07T01:21:47.253Z,10.91
2022-10-07T01:25:12.574Z,10.77
2022-10-07T01:28:25.093Z,10.68
2022-10-07T01:31:27.140Z,10.71
2022-10-07T01:34:26.502Z,10.59
2022-10-07T01:37:24.015Z,10.56
2022-10-07T01:40:27.436Z,10.64
2022-10-07T01:43:24.835Z,10.72
2022-10-07T01:46:26.692Z,10.71
2022-10-07T01:49:26.819Z,10.72
2022-10-07T01:52:45.170Z,10.56
2022-10-07T01:55:51.170Z,10.33
2022-10-07T01:58:56.865Z,10.48
2022-10-07T02:02:28.274Z,10.51
2022-10-07T02:05:41.953Z,10.37
2022-10-07T02:08:49.043Z,10.45
2022-10-07T02:11:46.362Z,10.50
2022-10-07T02:14:48.953Z,10.56
2022-10-07T02:17:56.554Z,10.37
2022-10-07T02:20:53.523Z,10.35
2022-10-07T02:23:51.890Z,10.30
2022-10-07T02:26:50.092Z,10.37
2022-10-07T02:29:47.465Z,10.37
2022-10-07T02:32:51.038Z,10.27
2022-10-07T02:35:51.603Z,10.27
2022-10-07T02:38:48.810Z,10.08
2022-10-07T02:42:11.685Z,10.19
2022-10-07T02:45:14.240Z,10.20
2022-10-07T02:48:23.376Z,10.04
2022-10-07T02:51:21.511Z,10.01
2022-10-07T02:54:23.256Z,10.06
2022-10-07T02:57:20.505Z,10.18
2022-10-07T03:00:17.644Z,10.30
2022-10-07T03:03:21.861Z,10.30
2022-10-07T03:06:26.116Z,10.25
2022-10-07T03:09:23.582Z,10.31
2022-10-07T03:12:20.637Z,10.18
2022-10-07T03:15:17.811Z,10.12
2022-10-07T03:18:26.662Z,10.08
2022-10-07T03:21:33.583Z,10.02
2022-10-07T03:24:31.956Z,9.94
2022-10-07T03:27:29.166Z,10.10
2022-10-07T03:30:26.525Z,10.25
2022-10-07T03:33:25.080Z,10.14
2022-10-07T03:36:23.238Z,10.10
2022-10-07T03:39:20.980Z,9.96
2022-10-07T03:42:19.566Z,10.01
2022-10-07T03:45:16.415Z,9.89
2022-10-07T03:48:13.922Z,10.01
2022-10-07T03:51:10.674Z,10.38
2022-10-07T03:54:09.403Z,10.42
2022-10-07T03:57:26.452Z,10.28
2022-10-07T04:00:24.552Z,10.15
2022-10-07T04:03:24.597Z,10.14
2022-10-07T04:06:21.829Z,10.07
2022-10-07T04:09:20.627Z,10.04
2022-10-07T04:12:17.557Z,10.03
2022-10-07T04:15:14.639Z,10.06
2022-10-07T04:18:13.683Z,10.07
2022-10-07T04:21:10.867Z,10.02
2022-10-07T04:24:07.564Z,9.94
2022-10-07T04:27:06.945Z,9.92
2022-10-07T04:30:05.288Z,9.95
2022-10-07T04:33:02.993Z,9.93
2022-10-07T04:36:07.980Z,9.89
2022-10-07T04:39:09.864Z,9.88
2022-10-07T04:42:34.782Z,9.73
2022-10-07T04:45:35.649Z,9.66
2022-10-07T04:48:32.884Z,9.66
2022-10-07T04:51:31.258Z,9.70
2022-10-07T04:54:29.559Z,9.65
2022-10-07T04:57:26.583Z,9.72
2022-10-07T05:00:24.077Z,9.65
2022-10-07T05:03:21.692Z,9.67
2022-10-07T05:06:19.995Z,9.77
2022-10-07T05:09:16.858Z,9.69
2022-10-07T05:12:17.766Z,9.65
2022-10-07T05:15:15.832Z,9.63
2022-10-07T05:18:13.866Z,9.68
2022-10-07T05:21:11.252Z,9.49
2022-10-07T05:24:12.671Z,9.49
2022-10-07T05:27:10.010Z,9.52
2022-10-07T05:30:09.354Z,9.50
2022-10-07T05:33:07.310Z,9.57
2022-10-07T05:36:05.629Z,9.62
2022-10-07T05:39:02.709Z,9.51
2022-10-07T05:42:10.685Z,9.55
2022-10-07T05:45:12.712Z,9.60
2022-10-07T05:48:09.669Z,9.68
2022-10-07T05:51:08.323Z,9.50
2022-10-07T05:54:05.968Z,9.57
2022-10-07T05:57:10.846Z,9.52
2022-10-07T06:00:08.702Z,9.56
2022-10-07T06:03:11.285Z,9.56
2022-10-07T06:06:09.119Z,9.58
2022-10-07T06:09:25.540Z,9.72
2022-10-07T06:12:43.213Z,9.76
2022-10-07T06:15:43.502Z,9.73
2022-10-07T06:18:40.888Z,9.84
2022-10-07T06:21:38.982Z,9.95
2022-10-07T06:24:35.814Z,9.93
2022-10-07T06:27:34.956Z,10.00
2022-10-07T06:30:33.754Z,9.99
2022-10-07T06:33:33.274Z,10.09
2022-10-07T06:36:30.841Z,10.14
2022-10-07T06:39:28.565Z,10.14
2022-10-07T06:42:27.088Z,10.25
2022-10-07T06:45:47.037Z,10.30
2022-10-07T06:48:46.720Z,10.34
2022-10-07T06:51:46.934Z,10.41
2022-10-07T06:54:44.889Z,10.41
2022-10-07T06:57:56.191Z,10.53
2022-10-07T07:00:54.294Z,10.85
2022-10-07T07:03:54.146Z,11.03
2022-10-07T07:06:51.636Z,11.25
2022-10-07T07:09:48.962Z,11.48
2022-10-07T07:12:46.240Z,11.61
2022-10-07T07:15:43.875Z,11.80
2022-10-07T07:18:40.803Z,12.01
2022-10-07T07:21:40.850Z,12.33
2022-10-07T07:24:41.352Z,12.53
2022-10-07T07:27:38.945Z,12.54
2022-10-07T07:30:37.273Z,12.69
2022-10-07T07:33:40.077Z,13.05
2022-10-07T07:36:37.022Z,13.19
2022-10-07T07:39:35.730Z,13.18
2022-10-07T07:42:40.007Z,12.97
2022-10-07T07:45:37.028Z,13.24
2022-10-07T07:48:34.625Z,13.33
2022-10-07T07:51:32.900Z,13.54
2022-10-07T07:54:30.602Z,13.59
2022-10-07T07:57:28.396Z,13.54
2022-10-07T08:00:27.945Z,13.90
2022-10-07T08:03:35.047Z,14.17
2022-10-07T08:06:32.663Z,14.43
2022-10-07T08:09:31.994Z,14.46
2022-10-07T08:12:28.978Z,14.63
2022-10-07T08:15:26.133Z,14.90
2022-10-07T08:18:22.868Z,14.75
2022-10-07T08:21:21.096Z,14.82
2022-10-07T08:24:22.908Z,14.91
2022-10-07T08:27:20.476Z,14.95
2022-10-07T08:30:17.837Z,15.05
2022-10-07T08:33:15.788Z,15.16
2022-10-07T08:36:17.710Z,15.39
2022-10-07T08:39:15.127Z,15.29
2022-10-07T08:42:16.904Z,15.35
2022-10-07T08:45:19.289Z,15.65
2022-10-07T08:48:22.602Z,15.65
2022-10-07T08:51:39.264Z,15.86
2022-10-07T08:54:36.013Z,16.02
2022-10-07T08:58:12.025Z,15.94
2022-10-07T09:01:32.168Z,16.01
2022-10-07T09:04:41.213Z,15.91
2022-10-07T09:07:48.176Z,15.89
2022-10-07T09:10:50.286Z,15.79
2022-10-07T09:14:02.771Z,16.03
2022-10-07T09:17:13.173Z,16.17
2022-10-07T09:20:16.572Z,16.26
2022-10-07T09:23:15.406Z,16.22
2022-10-07T09:26:14.712Z,16.26
2022-10-07T09:29:12.000Z,16.31
2022-10-07T09:32:17.706Z,16.45
2022-10-07T09:35:17.646Z,16.69
2022-10-07T09:38:17.238Z,16.47
2022-10-07T09:41:32.338Z,16.63
2022-10-07T09:44:30.499Z,16.66
2022-10-07T09:47:30.621Z,16.78
2022-10-07T09:50:39.609Z,16.83
2022-10-07T09:53:38.180Z,16.85
2022-10-07T09:56:37.638Z,16.99
2022-10-07T09:59:36.078Z,17.02
2022-10-07T10:02:32.957Z,17.23
2022-10-07T10:05:35.205Z,17.43
2022-10-07T10:08:35.954Z,17.40
2022-10-07T10:11:34.221Z,17.40
2022-10-07T10:14:59.918Z,17.61
2022-10-07T10:17:58.618Z,17.50
2022-10-07T10:21:13.885Z,17.59
2022-10-07T10:24:12.334Z,17.46
2022-10-07T10:27:21.227Z,17.36
2022-10-07T10:30:22.047Z,17.42
2022-10-07T10:33:42.210Z,17.46
2022-10-07T10:36:40.193Z,17.51
2022-10-07T10:40:02.259Z,17.83
2022-10-07T10:43:07.979Z,18.19
2022-10-07T10:46:23.974Z,17.94
2022-10-07T10:49:26.119Z,18.24
2022-10-07T10:52:35.116Z,18.71
2022-10-07T10:55:48.894Z,19.27
2022-10-07T10:59:18.714Z,20.02
2022-10-07T11:02:36.973Z,19.45
2022-10-07T11:05:35.773Z,19.49
2022-10-07T11:08:38.290Z,19.45
2022-10-07T11:11:36.336Z,19.27
2022-10-07T11:14:46.203Z,19.25
2022-10-07T11:17:43.024Z,19.06
2022-10-07T11:20:48.232Z,19.12
2022-10-07T11:24:18.413Z,19.35
2022-10-07T11:27:16.521Z,19.49
2022-10-07T11:30:23.168Z,19.04
2022-10-07T11:33:24.598Z,19.21
2022-10-07T11:36:24.786Z,19.17
2022-10-07T11:39:23.171Z,19.23
2022-10-07T11:42:24.686Z,19.11
2022-10-07T11:45:26.350Z,18.85
2022-10-07T11:48:34.249Z,18.74
2022-10-07T11:51:50.521Z,18.82
2022-10-07T11:55:09.527Z,18.88
2022-10-07T11:58:08.330Z,18.99
2022-10-07T12:01:28.652Z,19.24
2022-10-07T12:04:35.248Z,18.78
2022-10-07T12:07:35.067Z,18.60
2022-10-07T12:10:33.565Z,18.43
2022-10-07T12:13:41.662Z,18.38
2022-10-07T12:16:39.070Z,18.74
2022-10-07T12:19:35.870Z,18.94
2022-10-07T12:22:33.339Z,18.97
2022-10-07T12:25:32.448Z,19.15
2022-10-07T12:28:40.372Z,19.06
2022-10-07T12:31:41.514Z,18.46
2022-10-07T12:34:41.260Z,18.70
2022-10-07T12:37:38.481Z,19.00
2022-10-07T12:40:36.207Z,18.99
2022-10-07T12:43:59.189Z,19.14
2022-10-07T12:47:00.894Z,19.13
2022-10-07T12:50:03.207Z,19.23
2022-10-07T12:53:01.479Z,19.13
2022-10-07T12:55:57.832Z,19.04
2022-10-07T12:59:13.249Z,19.23
2022-10-07T13:02:44.452Z,19.24
2022-10-07T13:05:57.477Z,19.33
2022-10-07T13:09:03.919Z,19.29
2022-10-07T13:12:12.941Z,19.40
2022-10-07T13:15:13.199Z,19.49
2022-10-07T13:18:16.461Z,19.41
2022-10-07T13:21:22.158Z,19.66
2022-10-07T13:24:24.213Z,19.58
2022-10-07T13:27:28.437Z,19.57
2022-10-07T13:30:39.056Z,19.48
2022-10-07T13:33:36.363Z,19.48
2022-10-07T13:36:33.962Z,19.42
2022-10-07T13:39:31.358Z,19.55
2022-10-07T13:42:31.205Z,19.59
2022-10-07T13:45:28.446Z,19.51
2022-10-07T13:48:28.184Z,19.59
2022-10-07T13:51:40.376Z,19.69
2022-10-07T13:54:37.476Z,19.60
2022-10-07T13:57:35.270Z,19.49
2022-10-07T14:00:33.274Z,19.30
2022-10-07T14:03:30.230Z,19.32
2022-10-07T14:06:43.360Z,19.34
2022-10-07T14:09:58.825Z,19.62
2022-10-07T14:13:00.726Z,19.71
2022-10-07T14:15:58.122Z,19.67
2022-10-07T14:18:56.214Z,19.56
2022-10-07T14:21:53.419Z,19.47
2022-10-07T14:24:54.793Z,19.36
2022-10-07T14:27:53.487Z,19.44
2022-10-07T14:31:27.255Z,19.42
2022-10-07T14:34:43.596Z,19.54
2022-10-07T14:37:41.448Z,19.54
2022-10-07T14:40:38.190Z,19.48
2022-10-07T14:43:37.270Z,19.21
2022-10-07T14:46:34.103Z,19.05
2022-10-07T14:49:31.869Z,19.16
2022-10-07T14:52:31.603Z,19.03
2022-10-07T14:55:29.601Z,19.12
2022-10-07T14:58:27.696Z,19.24
2022-10-07T15:01:25.655Z,19.32
2022-10-07T15:04:23.446Z,19.44
2022-10-07T15:07:21.434Z,19.23
2022-10-07T15:10:20.046Z,19.16
2022-10-07T15:13:17.345Z,19.24
2022-10-07T15:16:23.484Z,19.40
2022-10-07T15:19:21.454Z,19.31
2022-10-07T15:22:18.951Z,19.24
2022-10-07T15:25:18.083Z,19.36
2022-10-07T15:28:15.594Z,19.44
2022-10-07T15:31:12.348Z,19.42
2022-10-07T15:34:10.260Z,19.47
2022-10-07T15:37:09.230Z,19.33
2022-10-07T15:40:07.843Z,19.25
2022-10-07T15:43:05.638Z,19.16
2022-10-07T15:46:03.223Z,19.18
2022-10-07T15:49:00.235Z,19.15
2022-10-07T15:51:57.697Z,19.28
2022-10-07T15:54:55.496Z,19.28
2022-10-07T15:57:52.468Z,19.05
2022-10-07T16:01:05.569Z,19.06
2022-10-07T16:04:02.938Z,19.09
2022-10-07T16:07:00.759Z,19.16
2022-10-07T16:09:58.311Z,19.04
2022-10-07T16:12:55.345Z,18.94
2022-10-07T16:16:02.193Z,18.69
2022-10-07T16:19:00.400Z,18.64
2022-10-07T16:21:57.109Z,18.60
2022-10-07T16:24:55.609Z,18.70
2022-10-07T16:28:11.092Z,18.79
2022-10-07T16:31:08.622Z,18.85
2022-10-07T16:34:05.378Z,18.92
2022-10-07T16:37:02.343Z,18.93
2022-10-07T16:39:59.078Z,19.00
2022-10-07T16:42:59.369Z,19.05
2022-10-07T16:46:00.146Z,18.87
2022-10-07T16:48:57.462Z,18.59
2022-10-07T16:51:54.630Z,18.24
2022-10-07T16:54:51.442Z,17.92
2022-10-07T16:57:48.963Z,17.59
2022-10-07T17:00:46.523Z,17.47
2022-10-07T17:03:44.664Z,17.31
2022-10-07T17:06:43.950Z,17.06
2022-10-07T17:09:41.270Z,16.94
2022-10-07T17:12:38.557Z,16.96
2022-10-07T17:15:39.766Z,16.77
2022-10-07T17:18:37.654Z,16.66
2022-10-07T17:21:39.754Z,16.63
2022-10-07T17:24:37.353Z,16.66
2022-10-07T17:27:34.403Z,16.66
2022-10-07T17:30:33.338Z,16.77
2022-10-07T17:33:31.161Z,16.94
2022-10-07T17:36:28.444Z,16.94
2022-10-07T17:39:25.501Z,16.94
2022-10-07T17:42:22.487Z,16.76
2022-10-07T17:45:19.480Z,16.71
2022-10-07T17:48:16.574Z,16.71
2022-10-07T17:51:15.204Z,16.57
2022-10-07T17:54:12.873Z,16.41
2022-10-07T17:57:10.674Z,16.24
2022-10-07T18:00:08.078Z,16.17
2022-10-07T18:03:13.178Z,16.24
2022-10-07T18:06:10.767Z,16.22
2022-10-07T18:09:09.255Z,16.15
2022-10-07T18:12:25.039Z,16.26
2022-10-07T18:15:22.319Z,16.14
2022-10-07T18:18:19.668Z,16.06
2022-10-07T18:21:16.279Z,16.02
2022-10-07T18:24:13.614Z,16.06
2022-10-07T18:27:10.585Z,15.99
2022-10-07T18:30:08.339Z,15.79
2022-10-07T18:33:05.446Z,15.71
2022-10-07T18:36:03.551Z,15.70
2022-10-07T18:39:00.133Z,15.56
2022-10-07T18:41:58.307Z,15.50
2022-10-07T18:44:55.456Z,15.40
2022-10-07T18:47:52.366Z,15.23
2022-10-07T18:50:52.609Z,15.22
2022-10-07T18:53:49.429Z,15.17
2022-10-07T18:56:47.271Z,15.11
2022-10-07T18:59:44.161Z,15.09
2022-10-07T19:02:44.978Z,15.00
2022-10-07T19:05:42.587Z,15.03
2022-10-07T19:08:40.006Z,15.05
2022-10-07T19:11:37.450Z,15.15
2022-10-07T19:14:35.098Z,15.12
2022-10-07T19:17:32.340Z,15.13
2022-10-07T19:20:29.916Z,15.04
2022-10-07T19:23:27.880Z,14.94
2022-10-07T19:26:26.571Z,14.98
2022-10-07T19:29:23.707Z,15.02
2022-10-07T19:32:21.213Z,15.12
2022-10-07T19:35:18.565Z,15.26
2022-10-07T19:38:15.701Z,15.48
2022-10-07T19:41:14.262Z,15.44
2022-10-07T19:44:11.748Z,15.66
2022-10-07T19:47:08.861Z,15.49
2022-10-07T19:50:06.882Z,15.35
2022-10-07T19:53:04.951Z,15.52
2022-10-07T19:56:06.174Z,15.99
2022-10-07T19:59:08.599Z,16.02
2022-10-07T20:02:08.429Z,16.05
2022-10-07T20:05:07.131Z,15.70
2022-10-07T20:08:09.358Z,15.43
2022-10-07T20:11:07.403Z,15.26
2022-10-07T20:14:05.835Z,15.20
2022-10-07T20:17:02.730Z,15.30
2022-10-07T20:19:59.334Z,15.37
2022-10-07T20:22:57.824Z,15.32
2022-10-07T20:25:54.544Z,15.35
2022-10-07T20:28:54.239Z,15.08
2022-10-07T20:31:52.511Z,15.00
2022-10-07T20:34:50.273Z,15.19
2022-10-07T20:37:47.996Z,15.58
2022-10-07T20:41:04.199Z,15.57
2022-10-07T20:44:01.510Z,15.63
2022-10-07T20:46:58.774Z,15.62
2022-10-07T20:49:56.758Z,15.74
2022-10-07T20:52:53.726Z,15.81
2022-10-07T20:55:50.286Z,15.65
2022-10-07T20:58:47.486Z,15.64
2022-10-07T21:01:45.070Z,15.93
2022-10-07T21:04:42.538Z,15.96
2022-10-07T21:07:40.247Z,15.99
2022-10-07T21:10:37.927Z,15.65
2022-10-07T21:13:34.424Z,15.74
2022-10-07T21:16:32.154Z,15.80
2022-10-07T21:19:31.677Z,15.43
2022-10-07T21:22:28.714Z,14.67
2022-10-07T21:25:26.610Z,14.34
2022-10-07T21:28:25.196Z,14.21
2022-10-07T21:31:22.944Z,14.10
2022-10-07T21:34:20.988Z,14.03
2022-10-07T21:37:18.763Z,13.82
2022-10-07T21:40:15.523Z,13.68
2022-10-07T21:43:12.810Z,13.59
2022-10-07T21:46:10.838Z,13.58
2022-10-07T21:49:07.845Z,13.48
2022-10-07T21:52:04.591Z,13.51
2022-10-07T21:55:01.474Z,13.50
2022-10-07T21:57:58.457Z,13.55
2022-10-07T22:00:55.949Z,13.68
2022-10-07T22:03:55.002Z,13.81
2022-10-07T22:07:11.270Z,13.87
2022-10-07T22:10:08.864Z,13.83
2022-10-07T22:13:05.845Z,13.68
2022-10-07T22:16:04.149Z,13.97
2022-10-07T22:19:01.662Z,14.41
2022-10-07T22:22:00.036Z,14.77
2022-10-07T22:24:57.474Z,14.95
2022-10-07T22:27:54.417Z,14.61
2022-10-07T22:30:51.737Z,14.48
2022-10-07T22:33:53.367Z,14.59
2022-10-07T22:36:50.653Z,14.59
2022-10-07T22:39:47.581Z,14.80
2022-10-07T22:42:46.384Z,14.74
2022-10-07T22:45:43.716Z,14.65
2022-10-07T22:48:43.271Z,14.35
2022-10-07T22:51:40.463Z,14.56
2022-10-07T22:54:37.890Z,14.36
2022-10-07T22:57:36.519Z,13.99
2022-10-07T23:00:33.996Z,14.26
2022-10-07T23:03:31.585Z,14.33
2022-10-07T23:06:29.556Z,14.32
2022-10-07T23:09:26.725Z,14.62
2022-10-07T23:12:23.530Z,14.83
2022-10-07T23:15:20.891Z,14.98
2022-10-07T23:18:17.808Z,15.07
2022-10-07T23:21:19.521Z,15.10
2022-10-07T23:24:16.593Z,14.64
2022-10-07T23:27:15.045Z,14.59
2022-10-07T23:30:11.999Z,14.59
2022-10-07T23:33:08.466Z,14.71
2022-10-07T23:36:09.081Z,14.82
2022-10-07T23:39:06.452Z,14.92
2022-10-07T23:42:03.779Z,15.01
2022-10-07T23:45:03.269Z,14.74
2022-10-07T23:48:00.608Z,14.75
2022-10-07T23:50:57.338Z,14.86
2022-10-07T23:54:01.665Z,14.96
2022-10-07T23:56:58.614Z,14.83
2022-10-07T23:59:55.970Z,14.61
